Aom Milena — 3FDD2 — position and weather

sailwx.info

Track history (hours):
 
Tides and Currents Weather Stations Pressure Air Temp Water Temp Dewpoint Dewpoint Depression Visibility Wind Speed Wind Dir Waves Ship Positions

Aom Milena

Last reported at 2017-Dec-14 18:05 UTC. Time now 2017-Dec-15 20:02 UTC.
Position N 35°44' W 031°16'.

Length 218 m; draft 7.9 m.

Type: Cargo ship. MMSI: 353613000.

Date/timePositionNaut miles runAvg speedWind from/ knotsBaromVisibWave heightAir tempDewpointWater temp
2017-Dec-14 18:05N 35°44' W 031°16'4514.4
2017-Dec-14 14:57N 35°53' W 030°21'813.9
2017-Dec-14 14:22N 35°55' W 030°12'514.1
2017-Dec-14 14:00N 35°56' W 030°05'714.0
2017-Dec-14 13:28N 35°58' W 029°57'614.1
2017-Dec-14 13:00N 35°59' W 029°49'1813.7
2017-Dec-14 11:43N 36°02' W 029°27'513.6
2017-Dec-14 11:23N 36°03' W 029°22'613.5
2017-Dec-14 10:55N 36°04' W 029°14'613.7
2017-Dec-14 10:29N 36°05' W 029°07'713.7
2017-Dec-14 10:00N 36°07' W 028°59'1313.7
2017-Dec-14 09:00N 36°09' W 028°42'913.4
2017-Dec-14 08:18N 36°11' W 028°31'513.4
2017-Dec-14 07:57N 36°12' W 028°25'613.6
2017-Dec-14 07:30N 36°13' W 028°18'713.6
2017-Dec-14 07:00N 36°14' W 028°09'713.6
2017-Dec-14 06:30N 36°15' W 028°01'713.8
2017-Dec-14 06:00N 36°16' W 027°53'713.8
2017-Dec-14 05:30N 36°16' W 027°44'713.9
2017-Dec-14 05:00N 36°17' W 027°35'713.8
2017-Dec-14 04:30N 36°18' W 027°27'713.9
2017-Dec-14 04:00N 36°19' W 027°18'714.1
2017-Dec-14 03:30N 36°20' W 027°10'714.4
2017-Dec-14 03:00N 36°21' W 027°01'714.0
2017-Dec-14 02:31N 36°22' W 026°52'714.1
2017-Dec-14 02:00N 36°22' W 026°44'714.3
2017-Dec-14 01:31N 36°23' W 026°35'714.2
2017-Dec-14 01:00N 36°24' W 026°26'714.0
2017-Dec-14 00:30N 36°26' W 026°17'714.1
2017-Dec-14 00:00N 36°27' W 026°09'714.0
2017-Dec-13 23:30N 36°28' W 026°00'714.1
2017-Dec-13 23:00N 36°29' W 025°52'714.0
2017-Dec-13 22:31N 36°30' W 025°43'714.0
2017-Dec-13 22:01N 36°31' W 025°34'714.0
2017-Dec-13 21:31N 36°32' W 025°26'714.1
2017-Dec-13 21:01N 36°33' W 025°17'713.8
2017-Dec-13 20:30N 36°34' W 025°09'713.9
2017-Dec-13 20:00N 36°35' W 025°00'713.8
2017-Dec-13 19:31N 36°36' W 024°52'714.0
2017-Dec-13 19:00N 36°38' W 024°43'713.7
2017-Dec-13 18:30N 36°39' W 024°35'714.0
2017-Dec-13 18:00N 36°40' W 024°26'714.1
2017-Dec-13 17:30N 36°41' W 024°17'713.2
2017-Dec-13 17:00N 36°42' W 024°09'612.8
2017-Dec-13 16:30N 36°41' W 024°01'612.5
2017-Dec-13 16:00N 36°40' W 023°54'611.3
2017-Dec-13 15:30N 36°41' W 023°47'612.8
2017-Dec-13 15:01N 36°41' W 023°39'612.6
2017-Dec-13 14:30N 36°40' W 023°31'712.7
2017-Dec-13 13:59N 36°40' W 023°23'612.8
2017-Dec-13 13:30N 36°39' W 023°15'612.8
2017-Dec-13 13:00N 36°39' W 023°07'612.7
2017-Dec-13 12:30N 36°39' W 022°59'712.7
2017-Dec-13 11:56N 36°38' W 022°50'612.7
2017-Dec-13 11:30N 36°38' W 022°43'812.6
2017-Dec-13 10:52N 36°38' W 022°33'712.5
2017-Dec-13 10:18N 36°38' W 022°24'1012.4
2017-Dec-13 09:31N 36°37' W 022°12'015.2
2017-Dec-13 09:30N 36°37' W 022°12'712.3
2017-Dec-13 08:58N 36°36' W 022°04'  
2017-Dec-10 21:15N 35°58' W 009°13'311.3
2017-Dec-10 21:00N 35°58' W 009°09'611.4
2017-Dec-10 20:30N 35°58' W 009°02'611.8
2017-Dec-10 20:00N 35°58' W 008°55'611.7
2017-Dec-10 19:30N 35°58' W 008°48'387 9.0
2017-Dec-09 00:24N 37°34' W 000°59'  
Track history (hours):
 
Tides and Currents Weather Stations Pressure Air Temp Water Temp Dewpoint Dewpoint Depression Visibility Wind Speed Wind Dir Waves Ship Positions

Aom Milena

Last reported at 2017-Dec-14 18:05 UTC. Time now 2017-Dec-15 20:02 UTC.
Position N 35°44' W 031°16'.

Length 218 m; draft 7.9 m.

Type: Cargo ship. MMSI: 353613000.

Date/timePositionNaut miles runAvg speedWind from/ knotsBaromVisibWave heightAir tempDewpointWater temp
2017-Dec-14 18:05N 35°44' W 031°16'4514.4
2017-Dec-14 14:57N 35°53' W 030°21'813.9
2017-Dec-14 14:22N 35°55' W 030°12'514.1
2017-Dec-14 14:00N 35°56' W 030°05'714.0
2017-Dec-14 13:28N 35°58' W 029°57'614.1
2017-Dec-14 13:00N 35°59' W 029°49'1813.7
2017-Dec-14 11:43N 36°02' W 029°27'513.6
2017-Dec-14 11:23N 36°03' W 029°22'613.5
2017-Dec-14 10:55N 36°04' W 029°14'613.7
2017-Dec-14 10:29N 36°05' W 029°07'713.7
2017-Dec-14 10:00N 36°07' W 028°59'1313.7
2017-Dec-14 09:00N 36°09' W 028°42'913.4
2017-Dec-14 08:18N 36°11' W 028°31'513.4
2017-Dec-14 07:57N 36°12' W 028°25'613.6
2017-Dec-14 07:30N 36°13' W 028°18'713.6
2017-Dec-14 07:00N 36°14' W 028°09'713.6
2017-Dec-14 06:30N 36°15' W 028°01'713.8
2017-Dec-14 06:00N 36°16' W 027°53'713.8
2017-Dec-14 05:30N 36°16' W 027°44'713.9
2017-Dec-14 05:00N 36°17' W 027°35'713.8
2017-Dec-14 04:30N 36°18' W 027°27'713.9
2017-Dec-14 04:00N 36°19' W 027°18'714.1
2017-Dec-14 03:30N 36°20' W 027°10'714.4
2017-Dec-14 03:00N 36°21' W 027°01'714.0
2017-Dec-14 02:31N 36°22' W 026°52'714.1
2017-Dec-14 02:00N 36°22' W 026°44'714.3
2017-Dec-14 01:31N 36°23' W 026°35'714.2
2017-Dec-14 01:00N 36°24' W 026°26'714.0
2017-Dec-14 00:30N 36°26' W 026°17'714.1
2017-Dec-14 00:00N 36°27' W 026°09'714.0
2017-Dec-13 23:30N 36°28' W 026°00'714.1
2017-Dec-13 23:00N 36°29' W 025°52'714.0
2017-Dec-13 22:31N 36°30' W 025°43'714.0
2017-Dec-13 22:01N 36°31' W 025°34'714.0
2017-Dec-13 21:31N 36°32' W 025°26'714.1
2017-Dec-13 21:01N 36°33' W 025°17'713.8
2017-Dec-13 20:30N 36°34' W 025°09'713.9
2017-Dec-13 20:00N 36°35' W 025°00'713.8
2017-Dec-13 19:31N 36°36' W 024°52'714.0
2017-Dec-13 19:00N 36°38' W 024°43'713.7
2017-Dec-13 18:30N 36°39' W 024°35'714.0
2017-Dec-13 18:00N 36°40' W 024°26'714.1
2017-Dec-13 17:30N 36°41' W 024°17'713.2
2017-Dec-13 17:00N 36°42' W 024°09'612.8
2017-Dec-13 16:30N 36°41' W 024°01'612.5
2017-Dec-13 16:00N 36°40' W 023°54'611.3
2017-Dec-13 15:30N 36°41' W 023°47'612.8
2017-Dec-13 15:01N 36°41' W 023°39'612.6
2017-Dec-13 14:30N 36°40' W 023°31'712.7
2017-Dec-13 13:59N 36°40' W 023°23'612.8
2017-Dec-13 13:30N 36°39' W 023°15'612.8
2017-Dec-13 13:00N 36°39' W 023°07'612.7
2017-Dec-13 12:30N 36°39' W 022°59'712.7
2017-Dec-13 11:56N 36°38' W 022°50'612.7
2017-Dec-13 11:30N 36°38' W 022°43'812.6
2017-Dec-13 10:52N 36°38' W 022°33'712.5
2017-Dec-13 10:18N 36°38' W 022°24'1012.4
2017-Dec-13 09:31N 36°37' W 022°12'015.2
2017-Dec-13 09:30N 36°37' W 022°12'712.3
2017-Dec-13 08:58N 36°36' W 022°04'  
2017-Dec-10 21:15N 35°58' W 009°13'311.3
2017-Dec-10 21:00N 35°58' W 009°09'611.4
2017-Dec-10 20:30N 35°58' W 009°02'611.8
2017-Dec-10 20:00N 35°58' W 008°55'611.7
2017-Dec-10 19:30N 35°58' W 008°48'387 9.0
2017-Dec-09 00:24N 37°34' W 000°59'  

Dump ship's entire track history